sensor_id;sensor_type;location;lat;lon;timestamp;temperature;humidity
5011;DHT22;2524;54.364;10.072;2023-12-29T00:01:54;9.50;99.90
5011;DHT22;2524;54.364;10.072;2023-12-29T00:04:20;9.50;99.90
5011;DHT22;2524;54.364;10.072;2023-12-29T00:06:46;9.50;99.90
5011;DHT22;2524;54.364;10.072;2023-12-29T00:09:11;9.50;99.90
5011;DHT22;2524;54.364;10.072;2023-12-29T00:11:38;9.60;99.90
5011;DHT22;2524;54.364;10.072;2023-12-29T00:14:04;9.60;99.90
5011;DHT22;2524;54.364;10.072;2023-12-29T00:16:30;9.50;99.90
5011;DHT22;2524;54.364;10.072;2023-12-29T00:18:55;9.50;99.90
5011;DHT22;2524;54.364;10.072;2023-12-29T00:21:21;9.40;99.90
5011;DHT22;2524;54.364;10.072;2023-12-29T00:23:47;9.40;99.90
5011;DHT22;2524;54.364;10.072;2023-12-29T00:26:16;9.40;99.90
5011;DHT22;2524;54.364;10.072;2023-12-29T00:28:42;9.60;99.90
5011;DHT22;2524;54.364;10.072;2023-12-29T00:31:08;9.60;99.90
5011;DHT22;2524;54.364;10.072;2023-12-29T00:33:34;9.40;99.90
5011;DHT22;2524;54.364;10.072;2023-12-29T00:36:00;9.40;99.90
5011;DHT22;2524;54.364;10.072;2023-12-29T00:38:29;9.40;99.90
5011;DHT22;2524;54.364;10.072;2023-12-29T00:40:54;9.40;99.90
5011;DHT22;2524;54.364;10.072;2023-12-29T00:43:20;9.40;99.90
5011;DHT22;2524;54.364;10.072;2023-12-29T00:45:47;9.40;99.90
5011;DHT22;2524;54.364;10.072;2023-12-29T00:48:12;9.50;99.90
5011;DHT22;2524;54.364;10.072;2023-12-29T00:50:38;9.40;99.90
5011;DHT22;2524;54.364;10.072;2023-12-29T00:53:03;9.40;99.90
5011;DHT22;2524;54.364;10.072;2023-12-29T00:55:29;9.30;99.90
5011;DHT22;2524;54.364;10.072;2023-12-29T00:57:54;9.30;99.90
5011;DHT22;2524;54.364;10.072;2023-12-29T01:00:20;9.40;99.90
5011;DHT22;2524;54.364;10.072;2023-12-29T01:02:46;9.30;99.90
5011;DHT22;2524;54.364;10.072;2023-12-29T01:05:15;9.30;99.90
5011;DHT22;2524;54.364;10.072;2023-12-29T01:07:41;9.30;99.90
5011;DHT22;2524;54.364;10.072;2023-12-29T01:10:08;9.40;99.90
5011;DHT22;2524;54.364;10.072;2023-12-29T01:12:33;9.30;99.90
5011;DHT22;2524;54.364;10.072;2023-12-29T01:14:59;9.40;99.90
5011;DHT22;2524;54.364;10.072;2023-12-29T01:17:25;9.50;99.90
5011;DHT22;2524;54.364;10.072;2023-12-29T01:19:52;9.40;99.90
5011;DHT22;2524;54.364;10.072;2023-12-29T01:22:18;9.30;99.90
5011;DHT22;2524;54.364;10.072;2023-12-29T01:24:44;9.30;99.90
5011;DHT22;2524;54.364;10.072;2023-12-29T01:27:09;9.40;99.90
5011;DHT22;2524;54.364;10.072;2023-12-29T01:29:35;9.50;99.90
5011;DHT22;2524;54.364;10.072;2023-12-29T01:32:01;9.50;99.90
5011;DHT22;2524;54.364;10.072;2023-12-29T01:34:29;9.30;99.90
5011;DHT22;2524;54.364;10.072;2023-12-29T01:36:58;9.30;99.90
5011;DHT22;2524;54.364;10.072;2023-12-29T01:39:24;9.50;99.90
5011;DHT22;2524;54.364;10.072;2023-12-29T01:41:49;9.40;99.90
5011;DHT22;2524;54.364;10.072;2023-12-29T01:46:44;9.40;99.90
5011;DHT22;2524;54.364;10.072;2023-12-29T01:49:15;9.40;99.90
5011;DHT22;2524;54.364;10.072;2023-12-29T01:51:42;9.40;99.90
5011;DHT22;2524;54.364;10.072;2023-12-29T01:54:09;9.50;99.90
5011;DHT22;2524;54.364;10.072;2023-12-29T01:56:35;9.50;99.90
5011;DHT22;2524;54.364;10.072;2023-12-29T01:59:01;9.60;99.90
5011;DHT22;2524;54.364;10.072;2023-12-29T02:01:27;9.40;99.90
5011;DHT22;2524;54.364;10.072;2023-12-29T02:03:53;9.60;99.90
5011;DHT22;2524;54.364;10.072;2023-12-29T02:06:19;9.40;99.90
5011;DHT22;2524;54.364;10.072;2023-12-29T02:08:51;9.50;99.90
5011;DHT22;2524;54.364;10.072;2023-12-29T02:11:17;9.40;99.90
5011;DHT22;2524;54.364;10.072;2023-12-29T02:13:43;9.60;99.90
5011;DHT22;2524;54.364;10.072;2023-12-29T02:16:35;9.60;99.90
5011;DHT22;2524;54.364;10.072;2023-12-29T02:19:08;9.50;99.90
5011;DHT22;2524;54.364;10.072;2023-12-29T02:21:36;9.60;99.90
5011;DHT22;2524;54.364;10.072;2023-12-29T02:24:02;9.60;99.90
5011;DHT22;2524;54.364;10.072;2023-12-29T02:26:29;9.50;99.90
5011;DHT22;2524;54.364;10.072;2023-12-29T02:29:02;9.50;99.90
5011;DHT22;2524;54.364;10.072;2023-12-29T02:31:30;9.50;99.90
5011;DHT22;2524;54.364;10.072;2023-12-29T02:33:58;9.70;99.90
5011;DHT22;2524;54.364;10.072;2023-12-29T02:36:25;9.50;99.90
5011;DHT22;2524;54.364;10.072;2023-12-29T02:38:51;9.50;99.90
5011;DHT22;2524;54.364;10.072;2023-12-29T02:41:16;9.60;99.90
5011;DHT22;2524;54.364;10.072;2023-12-29T02:43:42;9.50;99.90
5011;DHT22;2524;54.364;10.072;2023-12-29T02:46:08;9.60;99.90
5011;DHT22;2524;54.364;10.072;2023-12-29T02:48:33;9.50;99.90
5011;DHT22;2524;54.364;10.072;2023-12-29T02:50:59;9.50;99.90
5011;DHT22;2524;54.364;10.072;2023-12-29T02:53:24;9.50;99.90
5011;DHT22;2524;54.364;10.072;2023-12-29T02:55:50;9.60;99.90
5011;DHT22;2524;54.364;10.072;2023-12-29T02:58:15;9.50;99.90
5011;DHT22;2524;54.364;10.072;2023-12-29T03:00:41;9.50;99.90
5011;DHT22;2524;54.364;10.072;2023-12-29T03:03:07;9.60;99.90
5011;DHT22;2524;54.364;10.072;2023-12-29T03:05:32;9.50;99.90
5011;DHT22;2524;54.364;10.072;2023-12-29T03:07:58;9.50;99.90
5011;DHT22;2524;54.364;10.072;2023-12-29T03:10:23;9.70;99.90
5011;DHT22;2524;54.364;10.072;2023-12-29T03:12:49;9.60;99.90
5011;DHT22;2524;54.364;10.072;2023-12-29T03:15:15;9.50;99.90
5011;DHT22;2524;54.364;10.072;2023-12-29T03:17:40;9.50;99.90
5011;DHT22;2524;54.364;10.072;2023-12-29T03:20:06;9.50;99.90
5011;DHT22;2524;54.364;10.072;2023-12-29T03:22:33;9.50;99.90
5011;DHT22;2524;54.364;10.072;2023-12-29T03:24:58;9.50;99.90
5011;DHT22;2524;54.364;10.072;2023-12-29T03:27:24;9.60;99.90
5011;DHT22;2524;54.364;10.072;2023-12-29T03:29:49;9.70;99.90
5011;DHT22;2524;54.364;10.072;2023-12-29T03:32:15;9.60;99.90
5011;DHT22;2524;54.364;10.072;2023-12-29T03:34:41;9.50;99.90
5011;DHT22;2524;54.364;10.072;2023-12-29T03:37:06;9.60;99.90
5011;DHT22;2524;54.364;10.072;2023-12-29T03:39:32;9.70;99.90
5011;DHT22;2524;54.364;10.072;2023-12-29T03:42:00;9.50;99.90
5011;DHT22;2524;54.364;10.072;2023-12-29T03:44:26;9.60;99.90
5011;DHT22;2524;54.364;10.072;2023-12-29T03:46:52;9.60;99.90
5011;DHT22;2524;54.364;10.072;2023-12-29T03:49:17;9.70;99.90
5011;DHT22;2524;54.364;10.072;2023-12-29T03:51:43;9.70;99.90
5011;DHT22;2524;54.364;10.072;2023-12-29T03:54:09;9.70;99.90
5011;DHT22;2524;54.364;10.072;2023-12-29T03:56:34;9.90;99.90
5011;DHT22;2524;54.364;10.072;2023-12-29T03:59:00;9.70;99.90
5011;DHT22;2524;54.364;10.072;2023-12-29T04:01:25;9.80;99.90
5011;DHT22;2524;54.364;10.072;2023-12-29T04:03:53;9.90;99.90
5011;DHT22;2524;54.364;10.072;2023-12-29T04:06:18;9.90;99.90
5011;DHT22;2524;54.364;10.072;2023-12-29T04:08:44;9.80;99.90
5011;DHT22;2524;54.364;10.072;2023-12-29T04:11:09;9.70;99.90
5011;DHT22;2524;54.364;10.072;2023-12-29T04:13:35;9.80;99.90
5011;DHT22;2524;54.364;10.072;2023-12-29T04:16:01;9.90;99.90
5011;DHT22;2524;54.364;10.072;2023-12-29T04:18:26;9.90;99.90
5011;DHT22;2524;54.364;10.072;2023-12-29T04:20:52;9.70;99.90
5011;DHT22;2524;54.364;10.072;2023-12-29T04:23:18;9.70;99.90
5011;DHT22;2524;54.364;10.072;2023-12-29T04:25:43;9.90;99.90
5011;DHT22;2524;54.364;10.072;2023-12-29T04:28:09;9.70;99.90
5011;DHT22;2524;54.364;10.072;2023-12-29T04:30:35;9.70;99.90
5011;DHT22;2524;54.364;10.072;2023-12-29T04:33:01;9.70;99.90
5011;DHT22;2524;54.364;10.072;2023-12-29T04:35:27;9.70;99.90
5011;DHT22;2524;54.364;10.072;2023-12-29T04:37:52;9.70;99.90
5011;DHT22;2524;54.364;10.072;2023-12-29T04:40:18;9.80;99.90
5011;DHT22;2524;54.364;10.072;2023-12-29T04:42:44;9.80;99.90
5011;DHT22;2524;54.364;10.072;2023-12-29T04:45:10;9.80;99.90
5011;DHT22;2524;54.364;10.072;2023-12-29T04:47:36;9.80;99.90
5011;DHT22;2524;54.364;10.072;2023-12-29T04:50:02;9.80;99.90
5011;DHT22;2524;54.364;10.072;2023-12-29T04:52:27;9.60;99.90
5011;DHT22;2524;54.364;10.072;2023-12-29T04:54:53;9.60;99.90
5011;DHT22;2524;54.364;10.072;2023-12-29T04:57:18;9.70;99.90
5011;DHT22;2524;54.364;10.072;2023-12-29T04:59:44;9.70;99.90
5011;DHT22;2524;54.364;10.072;2023-12-29T05:02:10;9.60;99.90
5011;DHT22;2524;54.364;10.072;2023-12-29T05:04:35;9.80;99.90
5011;DHT22;2524;54.364;10.072;2023-12-29T05:07:01;9.60;99.90
5011;DHT22;2524;54.364;10.072;2023-12-29T05:09:26;9.60;99.90
5011;DHT22;2524;54.364;10.072;2023-12-29T05:11:52;9.60;99.90
5011;DHT22;2524;54.364;10.072;2023-12-29T05:14:17;9.80;99.90
5011;DHT22;2524;54.364;10.072;2023-12-29T05:16:43;9.80;99.90
5011;DHT22;2524;54.364;10.072;2023-12-29T05:19:09;9.70;99.90
5011;DHT22;2524;54.364;10.072;2023-12-29T05:21:35;9.80;99.90
5011;DHT22;2524;54.364;10.072;2023-12-29T05:24:00;9.60;99.90
5011;DHT22;2524;54.364;10.072;2023-12-29T05:26:26;9.50;99.90
5011;DHT22;2524;54.364;10.072;2023-12-29T05:28:51;9.50;99.90
5011;DHT22;2524;54.364;10.072;2023-12-29T05:31:17;9.50;99.90
5011;DHT22;2524;54.364;10.072;2023-12-29T05:33:44;9.50;99.90
5011;DHT22;2524;54.364;10.072;2023-12-29T05:36:10;9.50;99.90
5011;DHT22;2524;54.364;10.072;2023-12-29T05:38:37;9.40;99.90
5011;DHT22;2524;54.364;10.072;2023-12-29T05:41:03;9.40;99.90
5011;DHT22;2524;54.364;10.072;2023-12-29T05:43:31;9.40;99.90
5011;DHT22;2524;54.364;10.072;2023-12-29T05:45:58;9.40;99.90
5011;DHT22;2524;54.364;10.072;2023-12-29T05:48:24;9.40;99.90
5011;DHT22;2524;54.364;10.072;2023-12-29T05:50:50;9.40;99.90
5011;DHT22;2524;54.364;10.072;2023-12-29T05:53:16;9.40;99.90
5011;DHT22;2524;54.364;10.072;2023-12-29T05:55:43;9.40;99.90
5011;DHT22;2524;54.364;10.072;2023-12-29T05:58:08;9.40;99.90
5011;DHT22;2524;54.364;10.072;2023-12-29T06:00:35;9.40;99.90
5011;DHT22;2524;54.364;10.072;2023-12-29T06:03:01;9.40;99.90
5011;DHT22;2524;54.364;10.072;2023-12-29T06:05:27;9.30;99.90
5011;DHT22;2524;54.364;10.072;2023-12-29T06:07:52;9.30;99.90
5011;DHT22;2524;54.364;10.072;2023-12-29T06:10:18;9.30;99.90
5011;DHT22;2524;54.364;10.072;2023-12-29T06:12:43;9.30;99.90
5011;DHT22;2524;54.364;10.072;2023-12-29T06:15:09;9.20;99.90
5011;DHT22;2524;54.364;10.072;2023-12-29T06:17:35;9.20;99.90
5011;DHT22;2524;54.364;10.072;2023-12-29T06:20:01;9.20;99.90
5011;DHT22;2524;54.364;10.072;2023-12-29T06:22:27;9.10;99.90
5011;DHT22;2524;54.364;10.072;2023-12-29T06:24:53;9.10;99.90
5011;DHT22;2524;54.364;10.072;2023-12-29T06:27:19;9.20;99.90
5011;DHT22;2524;54.364;10.072;2023-12-29T06:29:44;9.20;99.90
5011;DHT22;2524;54.364;10.072;2023-12-29T06:32:10;9.10;99.90
5011;DHT22;2524;54.364;10.072;2023-12-29T06:34:35;9.10;99.90
5011;DHT22;2524;54.364;10.072;2023-12-29T06:37:01;9.10;99.90
5011;DHT22;2524;54.364;10.072;2023-12-29T06:39:27;9.10;99.90
5011;DHT22;2524;54.364;10.072;2023-12-29T06:41:52;9.10;99.90
5011;DHT22;2524;54.364;10.072;2023-12-29T06:44:18;9.10;99.90
5011;DHT22;2524;54.364;10.072;2023-12-29T06:46:43;9.10;99.90
5011;DHT22;2524;54.364;10.072;2023-12-29T06:49:10;9.10;99.90
5011;DHT22;2524;54.364;10.072;2023-12-29T06:51:35;9.10;99.90
5011;DHT22;2524;54.364;10.072;2023-12-29T06:54:01;9.10;99.90
5011;DHT22;2524;54.364;10.072;2023-12-29T06:56:27;9.10;99.90
5011;DHT22;2524;54.364;10.072;2023-12-29T06:58:53;9.20;99.90
5011;DHT22;2524;54.364;10.072;2023-12-29T07:01:18;9.10;99.90
5011;DHT22;2524;54.364;10.072;2023-12-29T07:03:44;9.20;99.90
5011;DHT22;2524;54.364;10.072;2023-12-29T07:06:10;9.10;99.90
5011;DHT22;2524;54.364;10.072;2023-12-29T07:08:36;9.10;99.90
5011;DHT22;2524;54.364;10.072;2023-12-29T07:11:02;9.10;99.90
5011;DHT22;2524;54.364;10.072;2023-12-29T07:13:28;9.10;99.90
5011;DHT22;2524;54.364;10.072;2023-12-29T07:15:54;9.10;99.90
5011;DHT22;2524;54.364;10.072;2023-12-29T07:18:20;9.10;99.90
5011;DHT22;2524;54.364;10.072;2023-12-29T07:20:45;9.30;99.90
5011;DHT22;2524;54.364;10.072;2023-12-29T07:23:11;9.10;99.90
5011;DHT22;2524;54.364;10.072;2023-12-29T07:25:37;9.10;99.90
5011;DHT22;2524;54.364;10.072;2023-12-29T07:28:02;9.10;99.90
5011;DHT22;2524;54.364;10.072;2023-12-29T07:30:30;9.10;99.90
5011;DHT22;2524;54.364;10.072;2023-12-29T07:32:55;9.10;99.90
5011;DHT22;2524;54.364;10.072;2023-12-29T07:35:21;9.10;99.90
5011;DHT22;2524;54.364;10.072;2023-12-29T07:37:48;9.10;99.90
5011;DHT22;2524;54.364;10.072;2023-12-29T07:40:14;9.20;99.90
5011;DHT22;2524;54.364;10.072;2023-12-29T07:42:40;9.20;99.90
5011;DHT22;2524;54.364;10.072;2023-12-29T07:45:06;9.20;99.90
5011;DHT22;2524;54.364;10.072;2023-12-29T07:47:32;9.20;99.90
5011;DHT22;2524;54.364;10.072;2023-12-29T07:49:58;9.20;99.90
5011;DHT22;2524;54.364;10.072;2023-12-29T07:52:23;9.20;99.90
5011;DHT22;2524;54.364;10.072;2023-12-29T07:54:49;9.30;99.90
5011;DHT22;2524;54.364;10.072;2023-12-29T07:57:15;9.10;99.90
5011;DHT22;2524;54.364;10.072;2023-12-29T07:59:40;9.10;99.90
5011;DHT22;2524;54.364;10.072;2023-12-29T08:02:06;9.10;99.90
5011;DHT22;2524;54.364;10.072;2023-12-29T08:04:32;9.10;99.90
5011;DHT22;2524;54.364;10.072;2023-12-29T08:06:58;9.10;99.90
5011;DHT22;2524;54.364;10.072;2023-12-29T08:09:25;9.10;99.90
5011;DHT22;2524;54.364;10.072;2023-12-29T08:11:50;9.20;99.90
5011;DHT22;2524;54.364;10.072;2023-12-29T08:14:16;9.10;99.90
5011;DHT22;2524;54.364;10.072;2023-12-29T08:16:41;9.10;99.90
5011;DHT22;2524;54.364;10.072;2023-12-29T08:19:07;9.10;99.90
5011;DHT22;2524;54.364;10.072;2023-12-29T08:21:34;9.20;99.90
5011;DHT22;2524;54.364;10.072;2023-12-29T08:23:59;9.30;99.90
5011;DHT22;2524;54.364;10.072;2023-12-29T08:26:25;9.20;99.90
5011;DHT22;2524;54.364;10.072;2023-12-29T08:28:51;9.10;99.90
5011;DHT22;2524;54.364;10.072;2023-12-29T08:31:19;9.10;99.90
5011;DHT22;2524;54.364;10.072;2023-12-29T08:33:45;9.00;99.90
5011;DHT22;2524;54.364;10.072;2023-12-29T08:36:12;9.10;99.90
5011;DHT22;2524;54.364;10.072;2023-12-29T08:38:38;9.00;99.90
5011;DHT22;2524;54.364;10.072;2023-12-29T08:41:03;9.10;99.90
5011;DHT22;2524;54.364;10.072;2023-12-29T08:43:30;9.30;99.90
5011;DHT22;2524;54.364;10.072;2023-12-29T08:45:56;9.10;99.90
5011;DHT22;2524;54.364;10.072;2023-12-29T08:48:22;9.10;99.90
5011;DHT22;2524;54.364;10.072;2023-12-29T08:50:48;9.10;99.90
5011;DHT22;2524;54.364;10.072;2023-12-29T08:53:14;9.10;99.90
5011;DHT22;2524;54.364;10.072;2023-12-29T08:55:41;9.10;99.90
5011;DHT22;2524;54.364;10.072;2023-12-29T08:58:07;9.30;99.90
5011;DHT22;2524;54.364;10.072;2023-12-29T09:00:32;9.30;99.90
5011;DHT22;2524;54.364;10.072;2023-12-29T09:02:58;9.20;99.90
5011;DHT22;2524;54.364;10.072;2023-12-29T09:05:24;9.10;99.90
5011;DHT22;2524;54.364;10.072;2023-12-29T09:07:49;9.10;99.90
5011;DHT22;2524;54.364;10.072;2023-12-29T09:10:15;9.10;99.90
5011;DHT22;2524;54.364;10.072;2023-12-29T09:12:41;9.10;99.90
5011;DHT22;2524;54.364;10.072;2023-12-29T09:15:07;9.20;99.90
5011;DHT22;2524;54.364;10.072;2023-12-29T09:17:34;9.10;99.90
5011;DHT22;2524;54.364;10.072;2023-12-29T09:20:00;9.20;99.90
5011;DHT22;2524;54.364;10.072;2023-12-29T09:22:25;9.20;99.90
5011;DHT22;2524;54.364;10.072;2023-12-29T09:24:51;9.20;99.90
5011;DHT22;2524;54.364;10.072;2023-12-29T09:27:16;9.10;99.90
5011;DHT22;2524;54.364;10.072;2023-12-29T09:29:42;9.20;99.90
5011;DHT22;2524;54.364;10.072;2023-12-29T09:32:09;9.30;99.90
5011;DHT22;2524;54.364;10.072;2023-12-29T09:34:34;9.20;99.90
5011;DHT22;2524;54.364;10.072;2023-12-29T09:37:00;9.20;99.90
5011;DHT22;2524;54.364;10.072;2023-12-29T09:39:25;9.30;99.90
5011;DHT22;2524;54.364;10.072;2023-12-29T09:41:52;9.20;99.90
5011;DHT22;2524;54.364;10.072;2023-12-29T09:44:20;9.20;99.90
5011;DHT22;2524;54.364;10.072;2023-12-29T09:46:50;9.40;99.90
5011;DHT22;2524;54.364;10.072;2023-12-29T09:49:18;9.20;99.90
5011;DHT22;2524;54.364;10.072;2023-12-29T09:51:45;9.30;99.90
5011;DHT22;2524;54.364;10.072;2023-12-29T09:54:11;9.40;99.90
5011;DHT22;2524;54.364;10.072;2023-12-29T09:56:38;9.30;99.90
5011;DHT22;2524;54.364;10.072;2023-12-29T09:59:04;9.30;99.90
5011;DHT22;2524;54.364;10.072;2023-12-29T10:01:37;9.30;99.90
5011;DHT22;2524;54.364;10.072;2023-12-29T10:04:06;9.40;99.90
5011;DHT22;2524;54.364;10.072;2023-12-29T10:06:35;9.50;99.90
5011;DHT22;2524;54.364;10.072;2023-12-29T10:09:02;9.40;99.90
5011;DHT22;2524;54.364;10.072;2023-12-29T10:11:30;9.40;99.90
5011;DHT22;2524;54.364;10.072;2023-12-29T10:14:00;9.40;99.90
5011;DHT22;2524;54.364;10.072;2023-12-29T10:16:38;9.50;99.90
5011;DHT22;2524;54.364;10.072;2023-12-29T10:19:10;9.40;99.90
5011;DHT22;2524;54.364;10.072;2023-12-29T10:21:57;9.50;99.90
5011;DHT22;2524;54.364;10.072;2023-12-29T10:24:27;9.50;99.90
5011;DHT22;2524;54.364;10.072;2023-12-29T10:26:55;9.40;99.90
5011;DHT22;2524;54.364;10.072;2023-12-29T10:29:21;9.40;99.90
5011;DHT22;2524;54.364;10.072;2023-12-29T10:31:47;9.50;99.90
5011;DHT22;2524;54.364;10.072;2023-12-29T10:34:26;9.50;99.90
5011;DHT22;2524;54.364;10.072;2023-12-29T10:36:59;9.50;99.90
5011;DHT22;2524;54.364;10.072;2023-12-29T10:39:26;9.50;99.90
5011;DHT22;2524;54.364;10.072;2023-12-29T10:42:04;9.50;99.90
5011;DHT22;2524;54.364;10.072;2023-12-29T10:44:35;9.50;99.90
5011;DHT22;2524;54.364;10.072;2023-12-29T10:47:10;9.70;99.90
5011;DHT22;2524;54.364;10.072;2023-12-29T10:49:36;9.60;99.90
5011;DHT22;2524;54.364;10.072;2023-12-29T10:52:13;9.80;99.90
5011;DHT22;2524;54.364;10.072;2023-12-29T10:54:40;9.60;99.90
5011;DHT22;2524;54.364;10.072;2023-12-29T10:57:05;9.60;99.90
5011;DHT22;2524;54.364;10.072;2023-12-29T10:59:31;9.60;99.90
5011;DHT22;2524;54.364;10.072;2023-12-29T11:01:56;9.60;99.90
5011;DHT22;2524;54.364;10.072;2023-12-29T11:04:26;9.80;99.90
5011;DHT22;2524;54.364;10.072;2023-12-29T11:06:51;9.60;99.90
5011;DHT22;2524;54.364;10.072;2023-12-29T11:09:31;9.60;99.90
5011;DHT22;2524;54.364;10.072;2023-12-29T11:12:00;9.60;99.90
5011;DHT22;2524;54.364;10.072;2023-12-29T11:14:26;9.70;99.90
5011;DHT22;2524;54.364;10.072;2023-12-29T11:16:52;9.60;99.90
5011;DHT22;2524;54.364;10.072;2023-12-29T11:19:20;9.60;99.90
5011;DHT22;2524;54.364;10.072;2023-12-29T11:21:48;9.60;99.90
5011;DHT22;2524;54.364;10.072;2023-12-29T11:24:14;9.70;99.90
5011;DHT22;2524;54.364;10.072;2023-12-29T11:26:40;9.60;99.90
5011;DHT22;2524;54.364;10.072;2023-12-29T11:29:08;9.60;99.90
5011;DHT22;2524;54.364;10.072;2023-12-29T11:31:35;9.80;99.90
5011;DHT22;2524;54.364;10.072;2023-12-29T11:34:12;9.60;99.90
5011;DHT22;2524;54.364;10.072;2023-12-29T11:36:43;9.70;99.90
5011;DHT22;2524;54.364;10.072;2023-12-29T11:39:24;9.70;99.90
5011;DHT22;2524;54.364;10.072;2023-12-29T11:42:15;9.80;99.90
5011;DHT22;2524;54.364;10.072;2023-12-29T11:44:43;9.70;99.90
5011;DHT22;2524;54.364;10.072;2023-12-29T11:47:49;9.70;99.90
5011;DHT22;2524;54.364;10.072;2023-12-29T11:50:28;9.70;99.90
5011;DHT22;2524;54.364;10.072;2023-12-29T11:52:53;9.70;99.90
5011;DHT22;2524;54.364;10.072;2023-12-29T11:55:19;9.70;99.90
5011;DHT22;2524;54.364;10.072;2023-12-29T11:57:45;9.80;99.90
5011;DHT22;2524;54.364;10.072;2023-12-29T12:00:11;9.90;99.90
5011;DHT22;2524;54.364;10.072;2023-12-29T12:02:37;9.80;99.90
5011;DHT22;2524;54.364;10.072;2023-12-29T12:05:03;9.80;99.90
5011;DHT22;2524;54.364;10.072;2023-12-29T12:10:31;9.80;99.90
5011;DHT22;2524;54.364;10.072;2023-12-29T12:12:58;9.80;99.90
5011;DHT22;2524;54.364;10.072;2023-12-29T12:17:56;9.80;99.90
5011;DHT22;2524;54.364;10.072;2023-12-29T12:20:22;9.90;99.90
5011;DHT22;2524;54.364;10.072;2023-12-29T12:22:55;9.80;99.90
5011;DHT22;2524;54.364;10.072;2023-12-29T12:25:22;9.90;99.90
5011;DHT22;2524;54.364;10.072;2023-12-29T12:27:52;9.80;99.90
5011;DHT22;2524;54.364;10.072;2023-12-29T12:30:21;9.80;99.90
5011;DHT22;2524;54.364;10.072;2023-12-29T12:32:57;9.70;99.90
5011;DHT22;2524;54.364;10.072;2023-12-29T12:35:23;9.70;99.90
5011;DHT22;2524;54.364;10.072;2023-12-29T12:38:13;9.60;99.90
5011;DHT22;2524;54.364;10.072;2023-12-29T12:40:39;9.60;99.90
5011;DHT22;2524;54.364;10.072;2023-12-29T12:43:05;9.70;99.90
5011;DHT22;2524;54.364;10.072;2023-12-29T12:45:41;9.60;99.90
5011;DHT22;2524;54.364;10.072;2023-12-29T12:48:20;9.50;99.90
5011;DHT22;2524;54.364;10.072;2023-12-29T12:50:48;9.40;99.90
5011;DHT22;2524;54.364;10.072;2023-12-29T12:53:15;9.40;99.90
5011;DHT22;2524;54.364;10.072;2023-12-29T12:55:48;9.30;99.90
5011;DHT22;2524;54.364;10.072;2023-12-29T12:58:16;9.50;99.90
5011;DHT22;2524;54.364;10.072;2023-12-29T13:00:42;9.30;99.90
5011;DHT22;2524;54.364;10.072;2023-12-29T13:03:08;9.20;99.90
5011;DHT22;2524;54.364;10.072;2023-12-29T13:05:36;9.10;99.90
5011;DHT22;2524;54.364;10.072;2023-12-29T13:08:02;9.00;99.90
5011;DHT22;2524;54.364;10.072;2023-12-29T13:10:29;8.90;99.90
5011;DHT22;2524;54.364;10.072;2023-12-29T13:12:55;8.90;99.90
5011;DHT22;2524;54.364;10.072;2023-12-29T13:15:21;8.80;99.90
5011;DHT22;2524;54.364;10.072;2023-12-29T13:17:54;8.80;99.90
5011;DHT22;2524;54.364;10.072;2023-12-29T13:20:20;9.00;99.90
5011;DHT22;2524;54.364;10.072;2023-12-29T13:22:52;9.10;99.90
5011;DHT22;2524;54.364;10.072;2023-12-29T13:25:20;9.10;99.90
5011;DHT22;2524;54.364;10.072;2023-12-29T13:27:50;9.40;99.90
5011;DHT22;2524;54.364;10.072;2023-12-29T13:30:16;9.40;99.90
5011;DHT22;2524;54.364;10.072;2023-12-29T13:32:42;9.40;99.90
5011;DHT22;2524;54.364;10.072;2023-12-29T13:35:31;9.60;99.90
5011;DHT22;2524;54.364;10.072;2023-12-29T13:38:12;9.40;99.90
5011;DHT22;2524;54.364;10.072;2023-12-29T13:41:08;9.40;99.90
5011;DHT22;2524;54.364;10.072;2023-12-29T13:43:35;9.20;99.90
5011;DHT22;2524;54.364;10.072;2023-12-29T13:46:03;9.20;99.90
5011;DHT22;2524;54.364;10.072;2023-12-29T13:48:31;9.20;99.90
5011;DHT22;2524;54.364;10.072;2023-12-29T13:50:57;9.10;99.90
5011;DHT22;2524;54.364;10.072;2023-12-29T13:53:23;9.30;99.90
5011;DHT22;2524;54.364;10.072;2023-12-29T13:55:49;9.10;99.90
5011;DHT22;2524;54.364;10.072;2023-12-29T13:58:16;9.10;99.90
5011;DHT22;2524;54.364;10.072;2023-12-29T14:00:43;9.10;99.90
5011;DHT22;2524;54.364;10.072;2023-12-29T14:03:42;9.10;99.90
5011;DHT22;2524;54.364;10.072;2023-12-29T14:06:12;9.10;99.90
5011;DHT22;2524;54.364;10.072;2023-12-29T14:08:47;9.10;99.90
5011;DHT22;2524;54.364;10.072;2023-12-29T14:11:13;9.10;99.90
5011;DHT22;2524;54.364;10.072;2023-12-29T14:13:44;9.10;99.90
5011;DHT22;2524;54.364;10.072;2023-12-29T14:16:09;9.20;99.90
5011;DHT22;2524;54.364;10.072;2023-12-29T14:21:31;9.10;99.90
5011;DHT22;2524;54.364;10.072;2023-12-29T14:26:23;9.20;99.90
5011;DHT22;2524;54.364;10.072;2023-12-29T14:29:06;9.00;99.90
5011;DHT22;2524;54.364;10.072;2023-12-29T14:31:35;9.00;99.90
5011;DHT22;2524;54.364;10.072;2023-12-29T14:34:01;9.00;99.90
5011;DHT22;2524;54.364;10.072;2023-12-29T14:36:27;9.00;99.90
5011;DHT22;2524;54.364;10.072;2023-12-29T14:38:52;8.90;99.90
5011;DHT22;2524;54.364;10.072;2023-12-29T14:41:19;9.10;99.90
5011;DHT22;2524;54.364;10.072;2023-12-29T14:43:45;9.10;99.90
5011;DHT22;2524;54.364;10.072;2023-12-29T14:46:10;9.00;99.90
5011;DHT22;2524;54.364;10.072;2023-12-29T14:48:36;8.90;99.90
5011;DHT22;2524;54.364;10.072;2023-12-29T14:51:02;8.90;99.90
5011;DHT22;2524;54.364;10.072;2023-12-29T14:53:29;8.90;99.90
5011;DHT22;2524;54.364;10.072;2023-12-29T14:55:54;8.90;99.90
5011;DHT22;2524;54.364;10.072;2023-12-29T14:58:20;8.90;99.90
5011;DHT22;2524;54.364;10.072;2023-12-29T15:00:45;8.90;99.90
5011;DHT22;2524;54.364;10.072;2023-12-29T15:03:14;8.90;99.90
5011;DHT22;2524;54.364;10.072;2023-12-29T15:05:43;8.90;99.90
5011;DHT22;2524;54.364;10.072;2023-12-29T15:08:09;8.80;99.90
5011;DHT22;2524;54.364;10.072;2023-12-29T15:10:35;8.80;99.90
5011;DHT22;2524;54.364;10.072;2023-12-29T15:13:01;8.80;99.90
5011;DHT22;2524;54.364;10.072;2023-12-29T15:15:27;9.00;99.90
5011;DHT22;2524;54.364;10.072;2023-12-29T15:17:52;8.80;99.90
5011;DHT22;2524;54.364;10.072;2023-12-29T15:20:18;8.90;99.90
5011;DHT22;2524;54.364;10.072;2023-12-29T15:22:43;8.80;99.90
5011;DHT22;2524;54.364;10.072;2023-12-29T15:25:09;8.90;99.90
5011;DHT22;2524;54.364;10.072;2023-12-29T15:27:35;8.80;99.90
5011;DHT22;2524;54.364;10.072;2023-12-29T15:30:00;8.70;99.90
5011;DHT22;2524;54.364;10.072;2023-12-29T15:32:26;8.60;99.90
5011;DHT22;2524;54.364;10.072;2023-12-29T15:34:52;8.60;99.90
5011;DHT22;2524;54.364;10.072;2023-12-29T15:37:17;8.60;99.90
5011;DHT22;2524;54.364;10.072;2023-12-29T15:39:45;8.70;99.90
5011;DHT22;2524;54.364;10.072;2023-12-29T15:42:11;8.70;99.90
5011;DHT22;2524;54.364;10.072;2023-12-29T15:44:37;8.60;99.90
5011;DHT22;2524;54.364;10.072;2023-12-29T15:47:02;8.60;99.90
5011;DHT22;2524;54.364;10.072;2023-12-29T15:49:28;8.60;99.90
5011;DHT22;2524;54.364;10.072;2023-12-29T15:51:54;8.70;99.90
5011;DHT22;2524;54.364;10.072;2023-12-29T15:54:19;8.70;99.90
5011;DHT22;2524;54.364;10.072;2023-12-29T15:56:45;8.60;99.90
5011;DHT22;2524;54.364;10.072;2023-12-29T15:59:11;8.60;99.90
5011;DHT22;2524;54.364;10.072;2023-12-29T16:01:36;8.60;99.90
5011;DHT22;2524;54.364;10.072;2023-12-29T16:04:02;8.60;99.90
5011;DHT22;2524;54.364;10.072;2023-12-29T16:06:28;8.60;99.90
5011;DHT22;2524;54.364;10.072;2023-12-29T16:08:54;8.60;99.90
5011;DHT22;2524;54.364;10.072;2023-12-29T16:11:26;8.60;99.90
5011;DHT22;2524;54.364;10.072;2023-12-29T16:13:52;8.60;99.90
5011;DHT22;2524;54.364;10.072;2023-12-29T16:16:18;8.70;99.90